createdAt,value
2023-02-11T00:00:35.551Z,49.93
2023-02-11T00:01:37.382Z,51.23
2023-02-11T00:02:38.817Z,50.27
2023-02-11T00:03:40.252Z,49.33
2023-02-11T00:04:41.610Z,48.80
2023-02-11T00:05:42.981Z,51.13
2023-02-11T00:06:44.368Z,50.43
2023-02-11T00:07:45.713Z,49.90
2023-02-11T00:08:47.085Z,48.30
2023-02-11T00:09:48.381Z,49.40
2023-02-11T00:10:56.040Z,48.73
2023-02-11T00:11:57.395Z,47.33
2023-02-11T00:12:58.788Z,48.50
2023-02-11T00:14:02.064Z,50.33
2023-02-11T00:15:03.840Z,49.20
2023-02-11T00:16:09.051Z,49.17
2023-02-11T00:17:10.449Z,47.77
2023-02-11T00:18:11.809Z,49.07
2023-02-11T00:19:13.129Z,49.17
2023-02-11T00:20:14.670Z,48.33
2023-02-11T00:21:17.734Z,50.53
2023-02-11T00:22:19.427Z,53.07
2023-02-11T00:23:20.816Z,48.93
2023-02-11T00:24:22.112Z,51.27
2023-02-11T00:25:23.473Z,48.17
2023-02-11T00:26:26.044Z,53.03
2023-02-11T00:27:27.398Z,52.33
2023-02-11T00:28:28.811Z,52.90
2023-02-11T00:29:30.162Z,48.13
2023-02-11T00:30:31.613Z,49.47
2023-02-11T00:31:33.909Z,48.73
2023-02-11T00:32:35.307Z,48.73
2023-02-11T00:33:36.650Z,50.23
2023-02-11T00:34:40.450Z,46.87
2023-02-11T00:35:41.754Z,47.83
2023-02-11T00:36:43.111Z,47.70
2023-02-11T00:37:44.408Z,49.93
2023-02-11T00:38:46.441Z,50.97
2023-02-11T00:39:47.878Z,44.70
2023-02-11T00:40:49.192Z,48.57
2023-02-11T00:41:50.588Z,45.27
2023-02-11T00:42:52.431Z,46.90
2023-02-11T00:43:53.941Z,48.77
2023-02-11T00:44:55.290Z,49.87
2023-02-11T00:45:56.746Z,45.03
2023-02-11T00:46:58.264Z,47.43
2023-02-11T00:47:59.575Z,46.97
2023-02-11T00:49:02.913Z,51.00
2023-02-11T00:50:05.252Z,48.43
2023-02-11T00:51:06.923Z,46.63
2023-02-11T00:52:08.286Z,50.17
2023-02-11T00:53:11.846Z,46.03
2023-02-11T00:54:13.448Z,48.73
2023-02-11T00:55:14.889Z,48.47
2023-02-11T00:56:16.229Z,50.47
2023-02-11T00:57:17.546Z,48.57
2023-02-11T00:58:18.868Z,46.43
2023-02-11T00:59:20.200Z,48.63
2023-02-11T01:00:22.154Z,54.07
2023-02-11T01:01:23.523Z,46.90
2023-02-11T01:02:24.928Z,48.07
2023-02-11T01:03:26.395Z,49.37
2023-02-11T01:04:27.770Z,49.17
2023-02-11T01:05:29.679Z,47.67
2023-02-11T01:06:31.157Z,48.77
2023-02-11T01:07:32.844Z,51.80
2023-02-11T01:08:34.449Z,49.73
2023-02-11T01:09:38.012Z,51.77
2023-02-11T01:10:40.335Z,52.27
2023-02-11T01:11:41.670Z,51.10
2023-02-11T01:12:43.017Z,46.87
2023-02-11T01:13:44.390Z,48.00
2023-02-11T01:14:45.923Z,45.87
2023-02-11T01:15:47.229Z,50.07
2023-02-11T01:16:48.539Z,52.67
2023-02-11T01:17:49.883Z,47.67
2023-02-11T01:18:52.886Z,45.37
2023-02-11T01:19:54.324Z,47.33
2023-02-11T01:20:55.723Z,45.57
2023-02-11T01:21:58.006Z,47.43
2023-02-11T01:22:59.386Z,48.53
2023-02-11T01:24:00.745Z,48.60
2023-02-11T01:25:02.196Z,47.07
2023-02-11T01:26:03.676Z,47.00
2023-02-11T01:27:05.078Z,46.07
2023-02-11T01:28:06.416Z,51.73
2023-02-11T01:29:09.308Z,45.30
2023-02-11T01:30:12.120Z,49.00
2023-02-11T01:31:14.393Z,46.30
2023-02-11T01:32:15.854Z,47.07
2023-02-11T01:33:17.532Z,49.03
2023-02-11T01:34:18.868Z,46.63
2023-02-11T01:35:20.228Z,49.00
2023-02-11T01:36:21.542Z,46.87
2023-02-11T01:37:22.972Z,46.73
2023-02-11T01:38:25.933Z,46.43
2023-02-11T01:39:27.777Z,46.77
2023-02-11T01:40:29.122Z,45.30
2023-02-11T01:41:30.516Z,48.83
2023-02-11T01:42:32.643Z,45.63
2023-02-11T01:43:44.838Z,44.43
2023-02-11T01:44:46.291Z,45.20
2023-02-11T01:45:54.529Z,45.23
2023-02-11T01:46:55.847Z,47.07
2023-02-11T01:47:57.225Z,51.13
2023-02-11T01:49:10.923Z,44.57
2023-02-11T01:50:12.367Z,47.50
2023-02-11T01:51:20.904Z,48.17
2023-02-11T01:52:32.765Z,46.33
2023-02-11T01:53:53.299Z,50.47
2023-02-11T01:55:18.216Z,45.17
2023-02-11T01:56:38.674Z,45.00
2023-02-11T01:57:41.560Z,46.90
2023-02-11T01:58:44.195Z,49.10
2023-02-11T02:00:03.856Z,49.53
2023-02-11T02:01:17.032Z,46.90
2023-02-11T02:02:20.539Z,48.47
2023-02-11T02:03:22.662Z,45.93
2023-02-11T02:04:31.155Z,46.27
2023-02-11T02:05:35.513Z,43.83
2023-02-11T02:06:52.154Z,43.77
2023-02-11T02:08:09.258Z,47.43
2023-02-11T02:09:19.696Z,42.17
2023-02-11T02:10:22.611Z,41.87
2023-02-11T02:11:24.019Z,43.77
2023-02-11T02:12:25.338Z,42.20
2023-02-11T02:13:28.154Z,41.73
2023-02-11T02:14:29.449Z,41.93
2023-02-11T02:15:32.333Z,41.60
2023-02-11T02:16:34.720Z,44.53
2023-02-11T02:17:41.772Z,42.20
2023-02-11T02:18:51.822Z,43.90
2023-02-11T02:20:03.849Z,44.23
2023-02-11T02:21:24.277Z,42.87
2023-02-11T02:22:47.020Z,40.23
2023-02-11T02:24:03.434Z,43.93
2023-02-11T02:25:10.823Z,42.93
2023-02-11T02:26:31.531Z,44.00
2023-02-11T02:27:48.406Z,48.10
2023-02-11T02:28:50.196Z,42.77
2023-02-11T02:30:10.519Z,42.07
2023-02-11T02:31:29.408Z,46.53
2023-02-11T02:32:43.611Z,44.10
2023-02-11T02:35:51.869Z,43.47
2023-02-11T02:36:56.568Z,41.07
2023-02-11T02:38:00.881Z,47.53
2023-02-11T02:39:05.984Z,41.97
2023-02-11T02:40:17.107Z,43.47
2023-02-11T02:41:25.340Z,44.27
2023-02-11T02:42:30.679Z,44.17
2023-02-11T02:43:40.684Z,43.40
2023-02-11T02:45:02.339Z,42.13
2023-02-11T02:46:18.313Z,44.47
2023-02-11T02:47:22.790Z,45.03
2023-02-11T02:48:36.029Z,44.27
2023-02-11T02:49:40.462Z,41.80
2023-02-11T02:50:43.442Z,42.43
2023-02-11T02:51:58.620Z,41.30
2023-02-11T02:53:23.376Z,43.73
2023-02-11T02:54:48.580Z,39.93
2023-02-11T02:55:55.744Z,42.00
2023-02-11T02:57:00.249Z,42.20
2023-02-11T02:58:17.192Z,42.47
2023-02-11T02:59:24.804Z,45.23
2023-02-11T03:00:27.039Z,48.43
2023-02-11T03:01:31.196Z,43.37
2023-02-11T03:02:51.519Z,39.83
2023-02-11T03:03:53.373Z,44.93
2023-02-11T03:05:11.137Z,45.83
2023-02-11T03:06:19.797Z,43.50
2023-02-11T03:07:26.191Z,43.83
2023-02-11T03:09:04.999Z,45.10
2023-02-11T03:10:13.002Z,46.17
2023-02-11T03:11:19.027Z,41.97
2023-02-11T03:12:30.840Z,43.23
2023-02-11T03:13:34.270Z,42.03
2023-02-11T03:14:39.220Z,43.10
2023-02-11T03:15:43.152Z,42.80
2023-02-11T03:16:48.761Z,42.13
2023-02-11T03:18:00.752Z,41.83
2023-02-11T03:19:07.337Z,48.30
2023-02-11T03:20:13.537Z,42.63
2023-02-11T03:21:16.182Z,45.37
2023-02-11T03:22:21.078Z,42.57
2023-02-11T03:23:36.044Z,46.07
2023-02-11T03:24:44.247Z,47.50
2023-02-11T03:25:52.186Z,45.97
2023-02-11T03:26:55.349Z,47.93
2023-02-11T03:28:04.971Z,43.63
2023-02-11T03:29:06.980Z,46.00
2023-02-11T03:30:08.587Z,46.23
2023-02-11T03:31:13.943Z,45.80
2023-02-11T03:32:32.672Z,43.00
2023-02-11T03:33:52.063Z,41.77
2023-02-11T03:34:56.644Z,44.90
2023-02-11T03:36:03.112Z,41.67
2023-02-11T03:37:16.511Z,45.23
2023-02-11T03:38:21.924Z,48.40
2023-02-11T03:39:27.289Z,47.53
2023-02-11T03:40:36.661Z,45.70
2023-02-11T03:41:42.283Z,44.47
2023-02-11T03:42:55.208Z,46.00
2023-02-11T03:44:01.208Z,47.00
2023-02-11T03:45:08.286Z,47.13
2023-02-11T03:46:10.945Z,45.27
2023-02-11T03:47:13.920Z,46.10
2023-02-11T03:48:22.426Z,50.03
2023-02-11T03:49:25.399Z,47.87
2023-02-11T03:50:37.076Z,46.83
2023-02-11T03:51:39.236Z,45.10
2023-02-11T03:52:42.849Z,46.13
2023-02-11T03:53:51.508Z,44.60
2023-02-11T03:55:00.590Z,45.83
2023-02-11T03:56:07.124Z,45.00
2023-02-11T03:57:09.045Z,47.20
2023-02-11T03:58:12.210Z,50.00
2023-02-11T03:59:14.308Z,43.03
2023-02-11T04:00:15.856Z,45.63
2023-02-11T04:01:17.665Z,46.90
2023-02-11T04:02:19.813Z,43.07
2023-02-11T04:03:21.631Z,46.00
2023-02-11T04:04:25.507Z,45.53
2023-02-11T04:05:27.105Z,46.13
2023-02-11T04:06:32.071Z,43.13
2023-02-11T04:07:36.079Z,45.90
2023-02-11T04:08:40.841Z,44.57
2023-02-11T04:09:42.583Z,47.03
2023-02-11T04:10:44.498Z,47.47
2023-02-11T04:11:48.947Z,46.73
2023-02-11T04:12:51.673Z,45.23
2023-02-11T04:13:53.721Z,44.00
2023-02-11T04:14:58.522Z,45.83
2023-02-11T04:16:06.653Z,48.70
2023-02-11T04:17:08.579Z,46.87
2023-02-11T04:18:10.760Z,44.40
2023-02-11T04:19:13.195Z,49.30
2023-02-11T04:20:17.861Z,46.23
2023-02-11T04:21:19.775Z,46.50
2023-02-11T04:22:24.808Z,46.60
2023-02-11T04:23:26.659Z,40.47
2023-02-11T04:24:29.000Z,45.23
2023-02-11T04:25:33.522Z,43.60
2023-02-11T04:26:35.485Z,42.27
2023-02-11T04:27:37.856Z,45.33
2023-02-11T04:28:42.514Z,44.67
2023-02-11T04:29:47.537Z,45.23
2023-02-11T04:30:53.787Z,47.20
2023-02-11T04:31:55.876Z,46.13
2023-02-11T04:33:01.740Z,46.13
2023-02-11T04:34:09.572Z,47.50
2023-02-11T04:35:16.566Z,44.50
2023-02-11T04:36:18.500Z,43.97
2023-02-11T04:37:20.539Z,47.47
2023-02-11T04:38:25.203Z,44.77
2023-02-11T04:39:27.293Z,46.37
2023-02-11T04:40:32.095Z,45.90
2023-02-11T04:41:37.167Z,45.90
2023-02-11T04:42:42.639Z,42.47
2023-02-11T04:43:47.347Z,46.27
2023-02-11T04:44:52.673Z,44.80
2023-02-11T04:46:00.147Z,45.27
2023-02-11T04:47:05.054Z,43.20
2023-02-11T04:48:31.617Z,42.33
2023-02-11T04:49:33.576Z,45.50
2023-02-11T04:50:35.356Z,44.97
2023-02-11T04:51:41.848Z,45.13
2023-02-11T04:52:54.372Z,45.27
2023-02-11T04:54:05.579Z,45.53
2023-02-11T04:55:16.324Z,44.77
2023-02-11T04:56:18.970Z,42.27
2023-02-11T04:57:23.721Z,46.03
2023-02-11T04:58:31.785Z,43.47
2023-02-11T04:59:35.941Z,44.23
2023-02-11T05:00:41.155Z,45.13
2023-02-11T05:01:43.018Z,46.73
2023-02-11T05:02:46.322Z,46.73
2023-02-11T05:03:48.661Z,44.40
2023-02-11T05:04:53.529Z,45.37
2023-02-11T05:05:56.482Z,45.33
2023-02-11T05:08:45.224Z,46.97
2023-02-11T05:09:47.355Z,46.00
2023-02-11T05:10:52.458Z,43.73
2023-02-11T05:11:54.430Z,45.60
2023-02-11T05:12:58.681Z,46.37
2023-02-11T05:14:02.146Z,44.63
2023-02-11T05:15:03.966Z,43.90
2023-02-11T05:16:05.733Z,43.83
2023-02-11T05:17:22.318Z,45.37
2023-02-11T05:18:27.417Z,42.37
2023-02-11T05:19:29.257Z,44.17
2023-02-11T05:20:31.430Z,43.13
2023-02-11T05:21:33.284Z,47.23
2023-02-11T05:22:37.525Z,44.63
2023-02-11T05:23:43.288Z,48.70
2023-02-11T05:24:47.891Z,48.80
2023-02-11T05:25:52.471Z,47.73
2023-02-11T05:27:00.209Z,44.53
2023-02-11T05:28:05.388Z,47.60
2023-02-11T05:29:15.778Z,51.27
2023-02-11T05:30:17.921Z,48.90
2023-02-11T05:31:28.477Z,44.77
2023-02-11T05:32:33.872Z,45.50
2023-02-11T05:33:39.018Z,43.73
2023-02-11T05:34:43.928Z,51.67
2023-02-11T05:35:47.776Z,43.60
2023-02-11T05:36:52.831Z,48.87
2023-02-11T05:37:57.902Z,47.33
2023-02-11T05:39:00.175Z,46.27
2023-02-11T05:40:05.176Z,45.70
2023-02-11T05:41:06.943Z,48.63
2023-02-11T05:42:11.737Z,47.37
2023-02-11T05:44:37.707Z,46.70
2023-02-11T05:45:39.896Z,50.10
2023-02-11T05:46:41.686Z,44.63
2023-02-11T05:47:51.265Z,48.20
2023-02-11T05:48:53.423Z,47.80
2023-02-11T05:49:58.149Z,41.97
2023-02-11T05:51:00.487Z,44.00
2023-02-11T05:52:02.371Z,45.80
2023-02-11T05:53:04.176Z,46.47
2023-02-11T05:54:09.190Z,45.87
2023-02-11T05:55:11.124Z,47.40
2023-02-11T05:56:14.893Z,46.63
2023-02-11T05:57:19.571Z,47.50
2023-02-11T05:59:53.327Z,49.67
2023-02-11T06:01:11.992Z,48.67
2023-02-11T06:02:16.698Z,44.07
2023-02-11T06:03:28.163Z,44.87
2023-02-11T06:04:36.836Z,42.97
2023-02-11T06:05:39.118Z,49.70
2023-02-11T06:06:42.424Z,44.60
2023-02-11T06:07:44.403Z,50.10
2023-02-11T06:08:47.070Z,47.20
2023-02-11T06:09:55.298Z,48.70
2023-02-11T06:10:59.576Z,46.60
2023-02-11T06:12:17.285Z,47.20
2023-02-11T06:13:22.824Z,44.20
2023-02-11T06:15:57.262Z,43.53
2023-02-11T06:17:05.178Z,47.20
2023-02-11T06:18:07.690Z,43.23
2023-02-11T06:19:24.517Z,48.60
2023-02-11T06:20:59.784Z,50.27
2023-02-11T06:22:01.550Z,48.47
2023-02-11T06:23:12.505Z,43.73
2023-02-11T06:24:38.293Z,45.13
2023-02-11T06:25:44.235Z,44.23
2023-02-11T06:26:45.668Z,45.67
2023-02-11T06:27:46.994Z,45.53
2023-02-11T06:28:48.515Z,44.70
2023-02-11T06:29:52.313Z,44.40
2023-02-11T06:30:53.751Z,43.40
2023-02-11T06:31:55.262Z,46.13
2023-02-11T06:32:56.787Z,44.10
2023-02-11T06:33:59.236Z,44.87
2023-02-11T06:35:00.724Z,44.30
2023-02-11T06:36:03.131Z,45.73
2023-02-11T06:37:04.709Z,45.27
2023-02-11T06:38:08.929Z,45.23
2023-02-11T06:39:10.329Z,42.43
2023-02-11T06:40:11.808Z,43.87
2023-02-11T06:41:14.128Z,41.90
2023-02-11T06:42:15.449Z,46.60
2023-02-11T06:43:16.897Z,43.50
2023-02-11T06:44:18.209Z,45.67
2023-02-11T06:45:20.516Z,44.40
2023-02-11T06:46:22.371Z,47.40
2023-02-11T06:47:23.832Z,49.40
2023-02-11T06:48:25.742Z,43.67
2023-02-11T06:49:27.066Z,44.30
2023-02-11T06:50:28.421Z,44.20
2023-02-11T06:51:29.803Z,42.40
2023-02-11T06:52:31.086Z,45.10
2023-02-11T06:53:35.452Z,44.13
2023-02-11T06:54:36.828Z,44.17
2023-02-11T06:55:38.217Z,44.07
2023-02-11T06:56:40.119Z,43.70
2023-02-11T06:57:41.470Z,47.00
2023-02-11T06:58:42.952Z,45.67
2023-02-11T06:59:44.505Z,45.97
2023-02-11T07:00:46.044Z,46.07
2023-02-11T07:01:47.660Z,45.73
2023-02-11T07:02:49.075Z,43.30
2023-02-11T07:03:50.779Z,44.97
2023-02-11T07:04:52.120Z,42.27
2023-02-11T07:05:53.497Z,47.10
2023-02-11T07:06:54.848Z,43.83
2023-02-11T07:07:56.827Z,43.90
2023-02-11T07:08:58.228Z,47.70
2023-02-11T07:09:59.587Z,43.30
2023-02-11T07:11:00.976Z,44.97
2023-02-11T07:12:02.306Z,41.33
2023-02-11T07:13:03.729Z,45.67
2023-02-11T07:14:08.286Z,45.43
2023-02-11T07:15:09.841Z,48.63
2023-02-11T07:16:12.532Z,44.20
2023-02-11T07:17:13.993Z,46.80
2023-02-11T07:18:15.411Z,47.37
2023-02-11T07:19:17.095Z,47.67
2023-02-11T07:20:18.528Z,45.77
2023-02-11T07:21:20.701Z,45.57
2023-02-11T07:22:22.256Z,44.03
2023-02-11T07:23:23.581Z,43.43
2023-02-11T07:24:25.127Z,45.63
2023-02-11T07:25:26.559Z,46.67
2023-02-11T07:26:28.898Z,44.60
2023-02-11T07:27:30.253Z,43.77
2023-02-11T07:28:31.713Z,43.83
2023-02-11T07:29:33.168Z,41.83
2023-02-11T07:30:34.515Z,45.77
2023-02-11T07:31:36.040Z,47.23
2023-02-11T07:32:37.417Z,46.93
2023-02-11T07:33:38.811Z,43.40
2023-02-11T07:34:40.282Z,44.87
2023-02-11T07:35:42.717Z,46.03
2023-02-11T07:36:45.060Z,49.87
2023-02-11T07:37:46.377Z,45.17
2023-02-11T07:38:47.752Z,48.00
2023-02-11T07:39:49.498Z,45.00
2023-02-11T07:40:50.840Z,42.33
2023-02-11T07:41:52.172Z,42.67
2023-02-11T07:42:53.537Z,46.87
2023-02-11T07:43:55.225Z,44.43
2023-02-11T07:44:56.760Z,44.27
2023-02-11T07:45:58.334Z,45.60
2023-02-11T07:46:59.970Z,40.40
2023-02-11T07:48:01.322Z,45.27
2023-02-11T07:49:02.910Z,44.33
2023-02-11T07:50:04.416Z,43.10
2023-02-11T07:51:07.547Z,43.23
2023-02-11T07:52:08.912Z,46.00
2023-02-11T07:53:10.203Z,43.50
2023-02-11T07:54:12.149Z,41.87
2023-02-11T07:55:13.459Z,43.30
2023-02-11T07:56:15.343Z,46.07
2023-02-11T07:57:16.742Z,46.07
2023-02-11T07:58:18.081Z,44.63
2023-02-11T07:59:19.425Z,46.73
2023-02-11T08:00:21.268Z,43.03
2023-02-11T08:01:25.383Z,44.47
2023-02-11T08:02:26.948Z,43.37
2023-02-11T08:03:28.374Z,41.47
2023-02-11T08:04:29.754Z,41.93
2023-02-11T08:05:31.060Z,47.83
2023-02-11T08:06:33.391Z,42.60
2023-02-11T08:07:34.803Z,43.40
2023-02-11T08:08:36.850Z,45.13
2023-02-11T08:09:38.256Z,44.20
2023-02-11T08:10:39.575Z,41.27
2023-02-11T08:11:40.860Z,42.00
2023-02-11T08:12:42.138Z,41.40
2023-02-11T08:13:43.773Z,42.27
2023-02-11T08:14:45.119Z,44.20
2023-02-11T08:15:46.570Z,42.13
2023-02-11T08:16:50.754Z,39.40
2023-02-11T08:17:52.263Z,37.07
2023-02-11T08:18:55.356Z,43.17
2023-02-11T08:19:56.737Z,40.40
2023-02-11T08:21:03.534Z,42.43
2023-02-11T08:22:05.015Z,40.13
2023-02-11T08:23:07.142Z,39.97
2023-02-11T08:24:08.938Z,40.93
2023-02-11T08:25:10.264Z,39.07
2023-02-11T08:26:13.180Z,37.77
2023-02-11T08:27:14.522Z,40.13
2023-02-11T08:28:15.922Z,38.37
2023-02-11T08:29:17.326Z,40.63
2023-02-11T08:30:18.709Z,40.57
2023-02-11T08:31:22.091Z,38.40
2023-02-11T08:32:25.425Z,38.20
2023-02-11T08:33:26.922Z,40.07
2023-02-11T08:34:28.365Z,38.47
2023-02-11T08:35:29.780Z,36.17
2023-02-11T08:36:36.072Z,36.30
2023-02-11T08:37:37.433Z,37.30
2023-02-11T08:38:39.224Z,42.90
2023-02-11T08:39:41.093Z,41.73
2023-02-11T08:40:43.259Z,34.70
2023-02-11T08:41:45.389Z,38.40
2023-02-11T08:42:46.692Z,34.97
2023-02-11T08:43:49.281Z,38.60
2023-02-11T08:44:50.625Z,32.53
2023-02-11T08:45:52.277Z,33.20
2023-02-11T08:46:53.876Z,32.50
2023-02-11T08:47:55.295Z,33.90
2023-02-11T08:48:56.689Z,34.50
2023-02-11T08:49:58.002Z,33.77
2023-02-11T08:50:59.553Z,32.37
2023-02-11T08:52:04.020Z,34.37
2023-02-11T08:53:05.353Z,34.40
2023-02-11T08:54:09.476Z,37.23
2023-02-11T08:55:10.933Z,33.53
2023-02-11T08:56:13.634Z,33.57
2023-02-11T08:57:15.067Z,36.03
2023-02-11T08:58:19.045Z,34.70
2023-02-11T08:59:20.712Z,32.97
2023-02-11T09:00:22.289Z,32.20
2023-02-11T09:01:29.124Z,33.87
2023-02-11T09:02:30.676Z,32.10
2023-02-11T09:03:32.023Z,33.00
2023-02-11T09:04:33.352Z,37.00
2023-02-11T09:05:34.748Z,33.00
2023-02-11T09:06:36.091Z,33.00
2023-02-11T09:07:37.412Z,34.23
2023-02-11T09:08:40.052Z,33.97
2023-02-11T09:09:41.475Z,32.83
2023-02-11T09:10:42.990Z,33.57
2023-02-11T09:11:45.560Z,35.60
2023-02-11T09:12:46.889Z,33.97
2023-02-11T09:13:48.251Z,32.33
2023-02-11T09:14:49.967Z,34.37
2023-02-11T09:15:51.659Z,33.03
2023-02-11T09:16:53.303Z,34.57
2023-02-11T09:17:54.694Z,32.57
2023-02-11T09:18:59.505Z,34.47
2023-02-11T09:20:01.097Z,33.93
2023-02-11T09:21:06.805Z,33.23
2023-02-11T09:22:08.224Z,35.53
2023-02-11T09:23:10.032Z,33.70
2023-02-11T09:24:11.570Z,33.53
2023-02-11T09:25:13.041Z,33.23
2023-02-11T09:26:18.273Z,34.47
2023-02-11T09:27:19.679Z,33.90
2023-02-11T09:28:21.205Z,34.80
2023-02-11T09:29:22.589Z,31.33
2023-02-11T09:30:26.908Z,34.63
2023-02-11T09:31:30.533Z,33.27
2023-02-11T09:32:32.249Z,32.13
2023-02-11T09:33:34.034Z,34.07
2023-02-11T09:34:37.450Z,35.63
2023-02-11T09:35:46.613Z,31.97
2023-02-11T09:36:49.746Z,32.70
2023-02-11T09:37:51.465Z,31.53
2023-02-11T09:38:53.339Z,32.23
2023-02-11T09:39:54.863Z,32.43
2023-02-11T09:40:56.624Z,33.90
2023-02-11T09:41:57.927Z,33.70
2023-02-11T09:43:03.024Z,31.37
2023-02-11T09:44:07.959Z,30.27
2023-02-11T09:45:16.827Z,31.07
2023-02-11T09:46:20.620Z,32.77
2023-02-11T09:47:26.985Z,37.73
2023-02-11T09:48:29.438Z,28.27
2023-02-11T09:49:50.568Z,30.43
2023-02-11T09:50:54.372Z,31.60
2023-02-11T09:52:03.120Z,29.47
2023-02-11T09:53:17.805Z,30.33
2023-02-11T09:54:41.061Z,28.67
2023-02-11T09:55:46.324Z,28.10
2023-02-11T09:56:47.791Z,30.57
2023-02-11T09:57:49.917Z,32.10
2023-02-11T09:58:54.393Z,28.70
2023-02-11T09:59:56.620Z,26.73
2023-02-11T10:01:19.381Z,30.47
2023-02-11T10:02:31.850Z,31.37
2023-02-11T10:03:38.780Z,30.50
2023-02-11T10:04:40.122Z,30.67
2023-02-11T10:05:53.564Z,29.07
2023-02-11T10:06:56.201Z,30.80
2023-02-11T10:08:03.670Z,29.80
2023-02-11T10:09:07.714Z,31.53
2023-02-11T10:10:36.346Z,29.50
2023-02-11T10:12:03.619Z,28.40
2023-02-11T10:13:43.610Z,30.10
2023-02-11T10:15:00.570Z,27.70
2023-02-11T10:16:07.763Z,30.60
2023-02-11T10:17:09.131Z,30.27
2023-02-11T10:18:16.106Z,30.27
2023-02-11T10:19:26.637Z,28.67
2023-02-11T10:20:36.801Z,30.40
2023-02-11T10:21:46.533Z,28.23
2023-02-11T10:23:08.178Z,28.60
2023-02-11T10:24:11.802Z,28.23
2023-02-11T10:25:26.429Z,32.07
2023-02-11T10:26:30.866Z,28.07
2023-02-11T10:27:33.752Z,29.33
2023-02-11T10:28:36.198Z,31.43
2023-02-11T10:29:43.396Z,29.83
2023-02-11T10:31:02.573Z,29.63
2023-02-11T10:32:07.237Z,31.17
2023-02-11T10:33:29.993Z,31.00
2023-02-11T10:34:31.350Z,30.23
2023-02-11T10:35:33.003Z,29.13
2023-02-11T10:36:35.364Z,30.10
2023-02-11T10:37:36.704Z,30.13
2023-02-11T10:38:38.086Z,28.30
2023-02-11T10:39:40.857Z,28.27
2023-02-11T10:40:42.320Z,28.97
2023-02-11T10:41:44.984Z,27.13
2023-02-11T10:42:48.426Z,28.53
2023-02-11T10:43:50.496Z,28.77
2023-02-11T10:44:57.640Z,32.20
2023-02-11T10:45:59.561Z,30.93
2023-02-11T10:47:04.255Z,28.13
2023-02-11T10:48:06.539Z,33.77
2023-02-11T10:49:08.006Z,29.80
2023-02-11T10:50:18.388Z,30.40
2023-02-11T10:51:24.315Z,29.73
2023-02-11T10:52:26.782Z,29.97
2023-02-11T10:53:28.103Z,27.87
2023-02-11T10:54:29.458Z,28.73
2023-02-11T10:55:30.865Z,27.80
2023-02-11T10:56:36.501Z,24.27
2023-02-11T10:57:40.857Z,26.27
2023-02-11T10:58:56.003Z,27.00
2023-02-11T10:59:59.156Z,28.70
2023-02-11T11:01:00.918Z,28.20
2023-02-11T11:02:04.491Z,33.00
2023-02-11T11:03:23.100Z,31.23
2023-02-11T11:04:30.751Z,28.93
2023-02-11T11:05:34.266Z,27.53
2023-02-11T11:06:35.787Z,28.43
2023-02-11T11:07:37.170Z,27.87
2023-02-11T11:08:43.091Z,26.43
2023-02-11T11:09:44.593Z,28.13
2023-02-11T11:10:47.550Z,26.13
2023-02-11T11:11:53.109Z,25.67
2023-02-11T11:12:54.418Z,26.90
2023-02-11T11:13:58.182Z,24.43
2023-02-11T11:15:01.344Z,24.70
2023-02-11T11:16:14.746Z,27.37
2023-02-11T11:17:18.614Z,27.03
2023-02-11T11:18:23.251Z,28.27
2023-02-11T11:19:25.271Z,25.37
2023-02-11T11:20:28.026Z,25.53
2023-02-11T11:21:36.891Z,25.30
2023-02-11T11:22:39.222Z,27.47
2023-02-11T11:23:47.163Z,25.60
2023-02-11T11:24:54.166Z,26.03
2023-02-11T11:26:00.528Z,28.20
2023-02-11T11:27:03.405Z,25.53
2023-02-11T11:28:05.006Z,25.30
2023-02-11T11:29:11.836Z,23.43
2023-02-11T11:30:16.597Z,24.00
2023-02-11T11:31:29.861Z,24.27
2023-02-11T11:32:32.708Z,24.80
2023-02-11T11:33:35.596Z,22.87
2023-02-11T11:34:38.534Z,25.23
2023-02-11T11:35:40.708Z,23.83
2023-02-11T11:36:42.089Z,22.67
2023-02-11T11:37:45.365Z,23.13
2023-02-11T11:38:50.309Z,29.17
2023-02-11T11:40:09.033Z,25.53
2023-02-11T11:41:24.481Z,26.07
2023-02-11T11:42:28.138Z,26.20
2023-02-11T11:43:29.530Z,24.23
2023-02-11T11:44:32.598Z,26.07
2023-02-11T11:45:34.014Z,23.80
2023-02-11T11:46:36.630Z,24.77
2023-02-11T11:47:56.693Z,23.20
2023-02-11T11:49:07.436Z,21.43
2023-02-11T11:50:25.924Z,24.43
2023-02-11T11:51:27.910Z,23.47
2023-02-11T11:52:32.263Z,21.87
2023-02-11T11:53:36.731Z,23.20
2023-02-11T11:54:38.243Z,23.07
2023-02-11T11:55:44.618Z,21.50
2023-02-11T11:56:57.934Z,22.63
2023-02-11T11:57:59.306Z,23.37
2023-02-11T11:59:02.221Z,23.20
2023-02-11T12:00:03.898Z,20.83
2023-02-11T12:01:26.365Z,25.20
2023-02-11T12:02:47.993Z,24.40
2023-02-11T12:04:08.483Z,24.23
2023-02-11T12:05:13.939Z,21.83
2023-02-11T12:06:28.184Z,24.27
2023-02-11T12:07:37.610Z,22.83
2023-02-11T12:09:07.746Z,23.67
2023-02-11T12:10:12.089Z,23.63
2023-02-11T12:11:26.576Z,22.40
2023-02-11T12:12:38.462Z,24.87
2023-02-11T12:14:02.787Z,22.53
2023-02-11T12:15:22.975Z,21.53
2023-02-11T12:16:33.523Z,23.63
2023-02-11T12:17:49.863Z,23.90
2023-02-11T12:19:10.349Z,22.27
2023-02-11T12:20:23.697Z,23.30
2023-02-11T12:21:34.242Z,23.33
2023-02-11T12:22:35.534Z,22.23
2023-02-11T12:23:46.537Z,24.27
2023-02-11T12:24:54.176Z,22.63
2023-02-11T12:26:09.212Z,20.93
2023-02-11T12:27:29.070Z,24.57
2023-02-11T12:28:42.594Z,20.10
2023-02-11T12:29:46.960Z,21.67
2023-02-11T12:31:03.589Z,21.33
2023-02-11T12:32:28.352Z,25.13
2023-02-11T12:33:40.861Z,21.53
2023-02-11T12:35:01.316Z,21.50
2023-02-11T12:36:08.910Z,23.27
2023-02-11T12:37:22.083Z,23.00
2023-02-11T12:38:42.014Z,23.87
2023-02-11T12:39:48.893Z,25.87
2023-02-11T12:40:50.610Z,25.20
2023-02-11T12:42:16.852Z,27.00
2023-02-11T12:43:23.359Z,25.67
2023-02-11T12:44:43.263Z,23.77
2023-02-11T12:45:53.729Z,24.57
2023-02-11T12:47:05.565Z,25.87
2023-02-11T12:48:14.954Z,23.80
2023-02-11T12:49:16.255Z,23.37
2023-02-11T12:50:26.874Z,26.57
2023-02-11T12:51:49.218Z,22.17
2023-02-11T12:52:56.320Z,23.83
2023-02-11T12:54:07.040Z,23.10
2023-02-11T12:55:16.331Z,23.53
2023-02-11T12:56:21.102Z,23.30
2023-02-11T12:57:25.903Z,22.23
2023-02-11T12:58:42.876Z,21.13
2023-02-11T12:59:58.990Z,22.83
2023-02-11T13:01:22.241Z,22.00
2023-02-11T13:02:23.659Z,23.93
2023-02-11T13:03:28.906Z,23.60
2023-02-11T13:04:39.177Z,26.57
2023-02-11T13:05:43.183Z,23.07
2023-02-11T13:06:45.953Z,23.03
2023-02-11T13:07:48.082Z,23.20
2023-02-11T13:08:51.262Z,23.97
2023-02-11T13:09:57.652Z,23.80
2023-02-11T13:11:01.256Z,24.07
2023-02-11T13:12:23.636Z,24.33
2023-02-11T13:13:34.223Z,24.37
2023-02-11T13:14:37.903Z,23.37
2023-02-11T13:15:39.947Z,24.13
2023-02-11T13:16:42.813Z,24.53
2023-02-11T13:17:49.136Z,23.43
2023-02-11T13:19:01.944Z,23.47
2023-02-11T13:20:13.663Z,20.90
2023-02-11T13:21:14.999Z,22.00
2023-02-11T13:22:25.463Z,23.80
2023-02-11T13:23:35.498Z,20.97
2023-02-11T13:24:44.329Z,23.93
2023-02-11T13:25:48.439Z,22.50
2023-02-11T13:26:59.082Z,22.87
2023-02-11T13:28:05.614Z,24.27
2023-02-11T13:29:25.747Z,22.30
2023-02-11T13:30:33.919Z,26.87
2023-02-11T13:31:35.452Z,22.83
2023-02-11T13:33:00.475Z,21.37
2023-02-11T13:34:03.786Z,23.43
2023-02-11T13:35:25.241Z,23.53
2023-02-11T13:36:28.301Z,22.77
2023-02-11T13:37:39.202Z,22.40
2023-02-11T13:38:40.635Z,20.90
2023-02-11T13:39:42.122Z,21.27
2023-02-11T13:40:43.982Z,23.93
2023-02-11T13:41:50.921Z,20.00
2023-02-11T13:42:55.238Z,22.83
2023-02-11T13:43:57.816Z,25.97
2023-02-11T13:44:59.356Z,23.47
2023-02-11T13:46:05.249Z,21.93
2023-02-11T13:47:07.101Z,24.70
2023-02-11T13:48:17.466Z,23.33
2023-02-11T13:49:21.073Z,21.73
2023-02-11T13:50:24.110Z,20.83
2023-02-11T13:51:36.136Z,21.70
2023-02-11T13:52:38.499Z,23.10
2023-02-11T13:53:50.445Z,23.73
2023-02-11T13:54:52.745Z,21.60
2023-02-11T13:56:05.083Z,21.77
2023-02-11T13:57:21.613Z,20.50
2023-02-11T13:58:28.949Z,21.60
2023-02-11T13:59:33.424Z,23.53
2023-02-11T14:00:34.816Z,20.10
2023-02-11T14:02:11.399Z,22.90
2023-02-11T14:03:31.362Z,21.27
2023-02-11T14:04:52.180Z,25.83
2023-02-11T14:06:27.501Z,23.40
2023-02-11T14:07:56.381Z,21.83
2023-02-11T14:09:06.900Z,23.10
2023-02-11T14:10:27.263Z,24.00
2023-02-11T14:11:41.024Z,24.23
2023-02-11T14:12:42.382Z,23.07
2023-02-11T14:13:52.665Z,24.20